Terminal Aerodrome Forecast
Issued by NWS

Home | Current Version | Previous Version | Text Only | Print | Product List | Glossary Off
Versions: 1 2 3 4 5 6 7 8 9 10 11 12 13 14

000
FTUS43 KTOP 191046 AAB
TAFMHK
TAF AMD
KMHK 191046Z 1911/2006 VRB02KT 4SM BR SKC
      TEMPO 1911/1913 1 1/2SM BR
     FM191800 18010KT P6SM SKC=

USA.gov is the U.S. government's official web portal to all federal, state and local government web resources and services.